sensor_id;sensor_type;location;lat;lon;timestamp;P1;durP1;ratioP1;P2;durP2;ratioP2
13202;SDS011;6666;51.626;7.530;2022-12-16T00:01:41;38.38;;;17.30;;
13202;SDS011;6666;51.626;7.530;2022-12-16T00:04:09;38.50;;;16.85;;
13202;SDS011;6666;51.626;7.530;2022-12-16T00:06:38;37.75;;;17.05;;
13202;SDS011;6666;51.626;7.530;2022-12-16T00:09:06;39.17;;;15.98;;
13202;SDS011;6666;51.626;7.530;2022-12-16T00:11:34;42.55;;;18.00;;
13202;SDS011;6666;51.626;7.530;2022-12-16T00:14:02;33.90;;;16.83;;
13202;SDS011;6666;51.626;7.530;2022-12-16T00:16:32;42.13;;;17.70;;
13202;SDS011;6666;51.626;7.530;2022-12-16T00:19:02;41.60;;;17.10;;
13202;SDS011;6666;51.626;7.530;2022-12-16T00:21:30;38.90;;;16.85;;
13202;SDS011;6666;51.626;7.530;2022-12-16T00:23:58;36.53;;;16.77;;
13202;SDS011;6666;51.626;7.530;2022-12-16T00:26:29;35.90;;;16.30;;
13202;SDS011;6666;51.626;7.530;2022-12-16T00:28:58;35.85;;;16.42;;
13202;SDS011;6666;51.626;7.530;2022-12-16T00:31:26;45.35;;;18.60;;
13202;SDS011;6666;51.626;7.530;2022-12-16T00:33:56;37.22;;;17.48;;
13202;SDS011;6666;51.626;7.530;2022-12-16T00:36:25;32.50;;;16.45;;
13202;SDS011;6666;51.626;7.530;2022-12-16T00:38:53;38.45;;;17.20;;
13202;SDS011;6666;51.626;7.530;2022-12-16T00:41:22;36.60;;;17.65;;
13202;SDS011;6666;51.626;7.530;2022-12-16T00:43:50;37.55;;;17.27;;
13202;SDS011;6666;51.626;7.530;2022-12-16T00:46:18;39.33;;;17.55;;
13202;SDS011;6666;51.626;7.530;2022-12-16T00:48:47;36.22;;;17.23;;
13202;SDS011;6666;51.626;7.530;2022-12-16T00:51:16;41.33;;;17.52;;
13202;SDS011;6666;51.626;7.530;2022-12-16T00:53:45;37.05;;;17.10;;
13202;SDS011;6666;51.626;7.530;2022-12-16T00:56:13;39.78;;;16.27;;
13202;SDS011;6666;51.626;7.530;2022-12-16T00:58:43;34.70;;;16.55;;
13202;SDS011;6666;51.626;7.530;2022-12-16T01:01:12;33.10;;;15.10;;
13202;SDS011;6666;51.626;7.530;2022-12-16T01:03:40;33.75;;;15.02;;
13202;SDS011;6666;51.626;7.530;2022-12-16T01:06:09;37.80;;;16.33;;
13202;SDS011;6666;51.626;7.530;2022-12-16T01:08:41;37.88;;;15.32;;
13202;SDS011;6666;51.626;7.530;2022-12-16T01:11:14;35.10;;;16.17;;
13202;SDS011;6666;51.626;7.530;2022-12-16T01:13:43;36.13;;;15.30;;
13202;SDS011;6666;51.626;7.530;2022-12-16T01:16:11;32.00;;;14.67;;
13202;SDS011;6666;51.626;7.530;2022-12-16T01:18:40;37.15;;;16.08;;
13202;SDS011;6666;51.626;7.530;2022-12-16T01:21:09;32.85;;;15.43;;
13202;SDS011;6666;51.626;7.530;2022-12-16T01:23:41;35.38;;;14.95;;
13202;SDS011;6666;51.626;7.530;2022-12-16T01:26:11;33.15;;;15.50;;
13202;SDS011;6666;51.626;7.530;2022-12-16T01:28:43;38.63;;;15.70;;
13202;SDS011;6666;51.626;7.530;2022-12-16T01:31:11;32.92;;;15.32;;
13202;SDS011;6666;51.626;7.530;2022-12-16T01:33:41;34.70;;;14.85;;
13202;SDS011;6666;51.626;7.530;2022-12-16T01:36:09;35.88;;;15.50;;
13202;SDS011;6666;51.626;7.530;2022-12-16T01:38:40;33.97;;;15.68;;
13202;SDS011;6666;51.626;7.530;2022-12-16T01:41:11;32.60;;;15.05;;
13202;SDS011;6666;51.626;7.530;2022-12-16T01:43:41;32.22;;;15.35;;
13202;SDS011;6666;51.626;7.530;2022-12-16T01:46:12;42.05;;;14.90;;
13202;SDS011;6666;51.626;7.530;2022-12-16T01:48:45;33.00;;;15.32;;
13202;SDS011;6666;51.626;7.530;2022-12-16T01:51:19;32.63;;;14.02;;
13202;SDS011;6666;51.626;7.530;2022-12-16T01:53:54;37.97;;;15.23;;
13202;SDS011;6666;51.626;7.530;2022-12-16T01:56:26;35.85;;;15.10;;
13202;SDS011;6666;51.626;7.530;2022-12-16T01:58:56;37.17;;;15.63;;
13202;SDS011;6666;51.626;7.530;2022-12-16T02:01:26;33.88;;;15.15;;
13202;SDS011;6666;51.626;7.530;2022-12-16T02:03:54;32.80;;;15.25;;
13202;SDS011;6666;51.626;7.530;2022-12-16T02:06:27;33.40;;;15.20;;
13202;SDS011;6666;51.626;7.530;2022-12-16T02:08:57;29.10;;;14.23;;
13202;SDS011;6666;51.626;7.530;2022-12-16T02:14:35;29.23;;;14.15;;
13202;SDS011;6666;51.626;7.530;2022-12-16T02:17:13;32.85;;;13.95;;
13202;SDS011;6666;51.626;7.530;2022-12-16T02:23:16;39.78;;;15.00;;
13202;SDS011;6666;51.626;7.530;2022-12-16T02:26:23;32.22;;;14.70;;
13202;SDS011;6666;51.626;7.530;2022-12-16T02:29:17;36.58;;;14.82;;
13202;SDS011;6666;51.626;7.530;2022-12-16T02:32:05;29.88;;;13.90;;
13202;SDS011;6666;51.626;7.530;2022-12-16T02:34:43;30.17;;;14.55;;
13202;SDS011;6666;51.626;7.530;2022-12-16T02:37:22;29.55;;;13.82;;
13202;SDS011;6666;51.626;7.530;2022-12-16T02:40:02;31.90;;;14.65;;
13202;SDS011;6666;51.626;7.530;2022-12-16T02:42:34;34.30;;;14.90;;
13202;SDS011;6666;51.626;7.530;2022-12-16T02:45:09;28.85;;;14.32;;
13202;SDS011;6666;51.626;7.530;2022-12-16T02:47:43;32.63;;;15.07;;
13202;SDS011;6666;51.626;7.530;2022-12-16T02:50:15;33.47;;;14.43;;
13202;SDS011;6666;51.626;7.530;2022-12-16T02:52:46;31.80;;;13.70;;
13202;SDS011;6666;51.626;7.530;2022-12-16T02:55:16;30.40;;;14.13;;
13202;SDS011;6666;51.626;7.530;2022-12-16T02:57:58;35.58;;;14.55;;
13202;SDS011;6666;51.626;7.530;2022-12-16T03:00:37;33.15;;;13.98;;
13202;SDS011;6666;51.626;7.530;2022-12-16T03:03:12;28.98;;;14.38;;
13202;SDS011;6666;51.626;7.530;2022-12-16T03:05:48;27.98;;;13.38;;
13202;SDS011;6666;51.626;7.530;2022-12-16T03:08:19;33.70;;;15.40;;
13202;SDS011;6666;51.626;7.530;2022-12-16T03:10:51;31.52;;;13.82;;
13202;SDS011;6666;51.626;7.530;2022-12-16T03:13:23;35.03;;;14.73;;
13202;SDS011;6666;51.626;7.530;2022-12-16T03:15:55;33.15;;;14.13;;
13202;SDS011;6666;51.626;7.530;2022-12-16T03:18:28;30.33;;;13.20;;
13202;SDS011;6666;51.626;7.530;2022-12-16T03:20:58;33.53;;;14.75;;
13202;SDS011;6666;51.626;7.530;2022-12-16T03:23:29;34.22;;;14.68;;
13202;SDS011;6666;51.626;7.530;2022-12-16T03:26:04;31.52;;;14.98;;
13202;SDS011;6666;51.626;7.530;2022-12-16T03:28:38;31.45;;;13.50;;
13202;SDS011;6666;51.626;7.530;2022-12-16T03:31:14;33.22;;;14.13;;
13202;SDS011;6666;51.626;7.530;2022-12-16T03:33:51;25.17;;;13.43;;
13202;SDS011;6666;51.626;7.530;2022-12-16T03:36:24;29.02;;;13.80;;
13202;SDS011;6666;51.626;7.530;2022-12-16T03:38:53;33.50;;;13.50;;
13202;SDS011;6666;51.626;7.530;2022-12-16T03:41:23;34.47;;;14.35;;
13202;SDS011;6666;51.626;7.530;2022-12-16T03:43:54;35.38;;;13.68;;
13202;SDS011;6666;51.626;7.530;2022-12-16T03:46:23;28.30;;;13.85;;
13202;SDS011;6666;51.626;7.530;2022-12-16T03:48:53;33.60;;;14.13;;
13202;SDS011;6666;51.626;7.530;2022-12-16T03:51:21;29.00;;;13.52;;
13202;SDS011;6666;51.626;7.530;2022-12-16T03:53:49;25.95;;;11.88;;
13202;SDS011;6666;51.626;7.530;2022-12-16T03:56:18;32.80;;;14.32;;
13202;SDS011;6666;51.626;7.530;2022-12-16T03:58:46;26.20;;;13.00;;
13202;SDS011;6666;51.626;7.530;2022-12-16T04:01:14;33.88;;;14.45;;
13202;SDS011;6666;51.626;7.530;2022-12-16T04:07:33;31.10;;;13.57;;
13202;SDS011;6666;51.626;7.530;2022-12-16T04:10:02;28.93;;;13.23;;
13202;SDS011;6666;51.626;7.530;2022-12-16T04:12:30;29.73;;;12.50;;
13202;SDS011;6666;51.626;7.530;2022-12-16T04:15:16;29.73;;;13.65;;
13202;SDS011;6666;51.626;7.530;2022-12-16T04:18:03;28.65;;;13.00;;
13202;SDS011;6666;51.626;7.530;2022-12-16T04:20:49;23.47;;;12.50;;
13202;SDS011;6666;51.626;7.530;2022-12-16T04:23:43;29.70;;;13.80;;
13202;SDS011;6666;51.626;7.530;2022-12-16T04:26:37;31.58;;;14.60;;
13202;SDS011;6666;51.626;7.530;2022-12-16T04:29:19;29.30;;;13.73;;
13202;SDS011;6666;51.626;7.530;2022-12-16T04:31:47;27.15;;;13.30;;
13202;SDS011;6666;51.626;7.530;2022-12-16T04:34:16;29.08;;;13.20;;
13202;SDS011;6666;51.626;7.530;2022-12-16T04:36:53;27.92;;;12.65;;
13202;SDS011;6666;51.626;7.530;2022-12-16T04:39:41;38.35;;;13.48;;
13202;SDS011;6666;51.626;7.530;2022-12-16T04:42:27;31.38;;;13.60;;
13202;SDS011;6666;51.626;7.530;2022-12-16T04:45:13;31.17;;;13.10;;
13202;SDS011;6666;51.626;7.530;2022-12-16T04:48:00;32.97;;;13.90;;
13202;SDS011;6666;51.626;7.530;2022-12-16T04:50:46;28.05;;;13.48;;
13202;SDS011;6666;51.626;7.530;2022-12-16T04:53:31;24.88;;;12.68;;
13202;SDS011;6666;51.626;7.530;2022-12-16T04:56:18;26.38;;;11.70;;
13202;SDS011;6666;51.626;7.530;2022-12-16T04:59:04;27.42;;;11.60;;
13202;SDS011;6666;51.626;7.530;2022-12-16T05:01:50;32.00;;;13.55;;
13202;SDS011;6666;51.626;7.530;2022-12-16T05:04:35;29.15;;;12.07;;
13202;SDS011;6666;51.626;7.530;2022-12-16T05:07:21;27.23;;;12.25;;
13202;SDS011;6666;51.626;7.530;2022-12-16T05:10:07;27.05;;;13.18;;
13202;SDS011;6666;51.626;7.530;2022-12-16T05:13:02;24.80;;;11.50;;
13202;SDS011;6666;51.626;7.530;2022-12-16T05:15:57;25.97;;;12.13;;
13202;SDS011;6666;51.626;7.530;2022-12-16T05:18:42;25.40;;;12.50;;
13202;SDS011;6666;51.626;7.530;2022-12-16T05:21:28;28.45;;;13.13;;
13202;SDS011;6666;51.626;7.530;2022-12-16T05:24:28;29.45;;;14.27;;
13202;SDS011;6666;51.626;7.530;2022-12-16T05:27:18;28.35;;;14.40;;
13202;SDS011;6666;51.626;7.530;2022-12-16T05:30:06;35.17;;;13.80;;
13202;SDS011;6666;51.626;7.530;2022-12-16T05:32:59;25.83;;;12.93;;
13202;SDS011;6666;51.626;7.530;2022-12-16T05:35:44;32.05;;;12.63;;
13202;SDS011;6666;51.626;7.530;2022-12-16T05:38:30;30.00;;;13.63;;
13202;SDS011;6666;51.626;7.530;2022-12-16T05:41:16;24.63;;;11.65;;
13202;SDS011;6666;51.626;7.530;2022-12-16T05:44:01;27.85;;;12.65;;
13202;SDS011;6666;51.626;7.530;2022-12-16T05:46:48;31.33;;;14.20;;
13202;SDS011;6666;51.626;7.530;2022-12-16T05:49:34;31.02;;;14.07;;
13202;SDS011;6666;51.626;7.530;2022-12-16T05:52:20;31.08;;;13.05;;
13202;SDS011;6666;51.626;7.530;2022-12-16T05:55:06;30.23;;;13.25;;
13202;SDS011;6666;51.626;7.530;2022-12-16T05:57:59;25.75;;;12.07;;
13202;SDS011;6666;51.626;7.530;2022-12-16T06:00:44;25.48;;;11.48;;
13202;SDS011;6666;51.626;7.530;2022-12-16T06:03:31;26.58;;;12.70;;
13202;SDS011;6666;51.626;7.530;2022-12-16T06:06:17;24.02;;;11.40;;
13202;SDS011;6666;51.626;7.530;2022-12-16T06:09:03;27.98;;;12.85;;
13202;SDS011;6666;51.626;7.530;2022-12-16T06:11:49;28.40;;;12.68;;
13202;SDS011;6666;51.626;7.530;2022-12-16T06:14:35;31.77;;;13.15;;
13202;SDS011;6666;51.626;7.530;2022-12-16T06:17:20;25.77;;;13.07;;
13202;SDS011;6666;51.626;7.530;2022-12-16T06:20:08;31.97;;;11.87;;
13202;SDS011;6666;51.626;7.530;2022-12-16T06:22:54;27.75;;;12.73;;
13202;SDS011;6666;51.626;7.530;2022-12-16T06:25:40;26.73;;;11.30;;
13202;SDS011;6666;51.626;7.530;2022-12-16T06:28:25;24.00;;;11.50;;
13202;SDS011;6666;51.626;7.530;2022-12-16T06:31:11;26.00;;;11.77;;
13202;SDS011;6666;51.626;7.530;2022-12-16T06:33:57;28.25;;;13.77;;
13202;SDS011;6666;51.626;7.530;2022-12-16T06:36:44;26.00;;;12.50;;
13202;SDS011;6666;51.626;7.530;2022-12-16T06:39:44;29.27;;;12.90;;
13202;SDS011;6666;51.626;7.530;2022-12-16T06:42:30;26.75;;;13.25;;
13202;SDS011;6666;51.626;7.530;2022-12-16T06:45:15;27.70;;;13.27;;
13202;SDS011;6666;51.626;7.530;2022-12-16T06:48:01;27.02;;;14.10;;
13202;SDS011;6666;51.626;7.530;2022-12-16T06:50:47;32.93;;;14.60;;
13202;SDS011;6666;51.626;7.530;2022-12-16T06:53:34;35.20;;;15.32;;
13202;SDS011;6666;51.626;7.530;2022-12-16T06:56:16;29.08;;;13.80;;
13202;SDS011;6666;51.626;7.530;2022-12-16T06:59:01;36.15;;;15.73;;
13202;SDS011;6666;51.626;7.530;2022-12-16T07:01:47;33.67;;;15.00;;
13202;SDS011;6666;51.626;7.530;2022-12-16T07:04:33;33.67;;;15.60;;
13202;SDS011;6666;51.626;7.530;2022-12-16T07:07:19;31.00;;;14.10;;
13202;SDS011;6666;51.626;7.530;2022-12-16T07:10:07;32.53;;;15.50;;
13202;SDS011;6666;51.626;7.530;2022-12-16T07:12:55;40.30;;;16.77;;
13202;SDS011;6666;51.626;7.530;2022-12-16T07:15:41;37.55;;;15.20;;
13202;SDS011;6666;51.626;7.530;2022-12-16T07:18:27;35.40;;;15.40;;
13202;SDS011;6666;51.626;7.530;2022-12-16T07:21:13;33.73;;;15.57;;
13202;SDS011;6666;51.626;7.530;2022-12-16T07:23:59;36.63;;;14.60;;
13202;SDS011;6666;51.626;7.530;2022-12-16T07:26:46;33.50;;;15.65;;
13202;SDS011;6666;51.626;7.530;2022-12-16T07:29:37;30.23;;;15.43;;
13202;SDS011;6666;51.626;7.530;2022-12-16T07:32:22;34.25;;;14.80;;
13202;SDS011;6666;51.626;7.530;2022-12-16T07:35:08;31.45;;;14.93;;
13202;SDS011;6666;51.626;7.530;2022-12-16T07:37:53;30.92;;;13.57;;
13202;SDS011;6666;51.626;7.530;2022-12-16T07:40:39;29.97;;;13.83;;
13202;SDS011;6666;51.626;7.530;2022-12-16T07:43:26;30.55;;;14.40;;
13202;SDS011;6666;51.626;7.530;2022-12-16T07:46:11;25.83;;;12.73;;
13202;SDS011;6666;51.626;7.530;2022-12-16T07:48:57;32.93;;;14.53;;
13202;SDS011;6666;51.626;7.530;2022-12-16T07:51:42;31.73;;;15.50;;
13202;SDS011;6666;51.626;7.530;2022-12-16T07:54:28;37.87;;;16.10;;
13202;SDS011;6666;51.626;7.530;2022-12-16T07:57:13;49.60;;;17.50;;
13202;SDS011;6666;51.626;7.530;2022-12-16T08:00:00;34.67;;;16.10;;
13202;SDS011;6666;51.626;7.530;2022-12-16T08:02:50;31.17;;;12.80;;
13202;SDS011;6666;51.626;7.530;2022-12-16T08:05:37;30.90;;;12.43;;
13202;SDS011;6666;51.626;7.530;2022-12-16T08:08:23;37.35;;;17.80;;
13202;SDS011;6666;51.626;7.530;2022-12-16T08:11:09;33.55;;;16.52;;
13202;SDS011;6666;51.626;7.530;2022-12-16T08:13:54;25.13;;;13.25;;
13202;SDS011;6666;51.626;7.530;2022-12-16T08:16:41;26.30;;;14.87;;
13202;SDS011;6666;51.626;7.530;2022-12-16T08:19:27;30.55;;;13.90;;
13202;SDS011;6666;51.626;7.530;2022-12-16T08:22:12;28.02;;;13.02;;
13202;SDS011;6666;51.626;7.530;2022-12-16T08:24:58;36.17;;;16.33;;
13202;SDS011;6666;51.626;7.530;2022-12-16T08:27:43;40.45;;;18.45;;
13202;SDS011;6666;51.626;7.530;2022-12-16T08:30:29;34.08;;;17.05;;
13202;SDS011;6666;51.626;7.530;2022-12-16T08:33:16;48.38;;;19.85;;
13202;SDS011;6666;51.626;7.530;2022-12-16T08:36:03;39.25;;;17.85;;
13202;SDS011;6666;51.626;7.530;2022-12-16T08:38:49;40.53;;;19.42;;
13202;SDS011;6666;51.626;7.530;2022-12-16T08:41:35;64.25;;;27.05;;
13202;SDS011;6666;51.626;7.530;2022-12-16T08:44:28;136.63;;;42.83;;
13202;SDS011;6666;51.626;7.530;2022-12-16T08:47:14;65.88;;;26.65;;
13202;SDS011;6666;51.626;7.530;2022-12-16T08:50:01;45.45;;;21.95;;
13202;SDS011;6666;51.626;7.530;2022-12-16T08:52:47;36.92;;;16.15;;
13202;SDS011;6666;51.626;7.530;2022-12-16T08:55:32;36.83;;;17.30;;
13202;SDS011;6666;51.626;7.530;2022-12-16T08:58:21;35.17;;;14.17;;
13202;SDS011;6666;51.626;7.530;2022-12-16T09:01:07;35.30;;;15.13;;
13202;SDS011;6666;51.626;7.530;2022-12-16T09:03:52;32.63;;;14.23;;
13202;SDS011;6666;51.626;7.530;2022-12-16T09:06:39;34.67;;;15.55;;
13202;SDS011;6666;51.626;7.530;2022-12-16T09:09:25;28.23;;;14.07;;
13202;SDS011;6666;51.626;7.530;2022-12-16T09:12:11;30.50;;;14.17;;
13202;SDS011;6666;51.626;7.530;2022-12-16T09:14:57;26.98;;;14.00;;
13202;SDS011;6666;51.626;7.530;2022-12-16T09:17:42;25.10;;;12.80;;
13202;SDS011;6666;51.626;7.530;2022-12-16T09:20:28;47.38;;;19.30;;
13202;SDS011;6666;51.626;7.530;2022-12-16T09:23:15;41.25;;;19.55;;
13202;SDS011;6666;51.626;7.530;2022-12-16T09:26:01;32.63;;;14.88;;
13202;SDS011;6666;51.626;7.530;2022-12-16T09:28:47;27.98;;;12.80;;
13202;SDS011;6666;51.626;7.530;2022-12-16T09:31:33;26.00;;;13.68;;
13202;SDS011;6666;51.626;7.530;2022-12-16T09:34:24;24.98;;;12.85;;
13202;SDS011;6666;51.626;7.530;2022-12-16T09:37:10;30.77;;;14.52;;
13202;SDS011;6666;51.626;7.530;2022-12-16T09:39:57;32.40;;;14.20;;
13202;SDS011;6666;51.626;7.530;2022-12-16T09:42:44;31.67;;;15.05;;
13202;SDS011;6666;51.626;7.530;2022-12-16T09:45:37;25.10;;;13.00;;
13202;SDS011;6666;51.626;7.530;2022-12-16T09:48:33;64.55;;;20.27;;
13202;SDS011;6666;51.626;7.530;2022-12-16T09:51:31;33.72;;;14.85;;
13202;SDS011;6666;51.626;7.530;2022-12-16T09:54:28;60.40;;;22.00;;
13202;SDS011;6666;51.626;7.530;2022-12-16T09:57:21;40.35;;;18.60;;
13202;SDS011;6666;51.626;7.530;2022-12-16T10:00:18;95.25;;;33.58;;
13202;SDS011;6666;51.626;7.530;2022-12-16T10:03:11;45.80;;;18.53;;
13202;SDS011;6666;51.626;7.530;2022-12-16T10:06:06;76.63;;;27.30;;
13202;SDS011;6666;51.626;7.530;2022-12-16T10:09:01;46.85;;;18.13;;
13202;SDS011;6666;51.626;7.530;2022-12-16T10:11:54;45.25;;;16.23;;
13202;SDS011;6666;51.626;7.530;2022-12-16T10:14:48;48.53;;;17.42;;
13202;SDS011;6666;51.626;7.530;2022-12-16T10:17:39;82.38;;;27.05;;
13202;SDS011;6666;51.626;7.530;2022-12-16T10:20:32;51.75;;;19.95;;
13202;SDS011;6666;51.626;7.530;2022-12-16T10:23:24;106.65;;;36.47;;
13202;SDS011;6666;51.626;7.530;2022-12-16T10:26:18;73.80;;;29.02;;
13202;SDS011;6666;51.626;7.530;2022-12-16T10:29:11;68.23;;;25.17;;
13202;SDS011;6666;51.626;7.530;2022-12-16T10:32:07;44.70;;;19.00;;
13202;SDS011;6666;51.626;7.530;2022-12-16T10:35:01;54.38;;;20.38;;
13202;SDS011;6666;51.626;7.530;2022-12-16T10:37:59;37.65;;;16.63;;
13202;SDS011;6666;51.626;7.530;2022-12-16T10:40:45;40.00;;;17.85;;
13202;SDS011;6666;51.626;7.530;2022-12-16T10:43:33;34.25;;;14.88;;
13202;SDS011;6666;51.626;7.530;2022-12-16T10:46:23;38.25;;;16.40;;
13202;SDS011;6666;51.626;7.530;2022-12-16T10:49:14;41.42;;;18.23;;
13202;SDS011;6666;51.626;7.530;2022-12-16T10:52:00;36.25;;;16.30;;
13202;SDS011;6666;51.626;7.530;2022-12-16T10:54:48;32.50;;;14.80;;
13202;SDS011;6666;51.626;7.530;2022-12-16T10:57:49;30.00;;;14.40;;
13202;SDS011;6666;51.626;7.530;2022-12-16T11:00:43;30.80;;;14.37;;
13202;SDS011;6666;51.626;7.530;2022-12-16T11:03:33;39.83;;;16.67;;
13202;SDS011;6666;51.626;7.530;2022-12-16T11:06:24;46.78;;;17.65;;
13202;SDS011;6666;51.626;7.530;2022-12-16T11:09:17;35.20;;;16.33;;
13202;SDS011;6666;51.626;7.530;2022-12-16T11:12:13;28.15;;;14.45;;
13202;SDS011;6666;51.626;7.530;2022-12-16T11:15:17;64.40;;;23.35;;
13202;SDS011;6666;51.626;7.530;2022-12-16T11:18:10;59.53;;;23.30;;
13202;SDS011;6666;51.626;7.530;2022-12-16T11:21:11;80.47;;;31.23;;
13202;SDS011;6666;51.626;7.530;2022-12-16T11:24:10;40.78;;;19.10;;
13202;SDS011;6666;51.626;7.530;2022-12-16T11:26:58;47.30;;;19.27;;
13202;SDS011;6666;51.626;7.530;2022-12-16T11:29:49;42.35;;;17.60;;
13202;SDS011;6666;51.626;7.530;2022-12-16T11:32:37;30.10;;;15.80;;
13202;SDS011;6666;51.626;7.530;2022-12-16T11:35:26;34.30;;;15.13;;
13202;SDS011;6666;51.626;7.530;2022-12-16T11:38:19;37.90;;;14.75;;
13202;SDS011;6666;51.626;7.530;2022-12-16T11:41:20;43.58;;;18.52;;
13202;SDS011;6666;51.626;7.530;2022-12-16T11:44:16;37.80;;;17.52;;
13202;SDS011;6666;51.626;7.530;2022-12-16T11:47:05;45.78;;;20.25;;
13202;SDS011;6666;51.626;7.530;2022-12-16T11:49:54;32.55;;;14.82;;
13202;SDS011;6666;51.626;7.530;2022-12-16T11:52:42;28.30;;;13.80;;
13202;SDS011;6666;51.626;7.530;2022-12-16T11:55:37;28.23;;;14.27;;
13202;SDS011;6666;51.626;7.530;2022-12-16T11:58:39;41.40;;;18.25;;
13202;SDS011;6666;51.626;7.530;2022-12-16T12:01:29;54.70;;;22.10;;
13202;SDS011;6666;51.626;7.530;2022-12-16T12:04:20;41.97;;;18.95;;
13202;SDS011;6666;51.626;7.530;2022-12-16T12:07:18;43.92;;;18.00;;
13202;SDS011;6666;51.626;7.530;2022-12-16T12:10:14;35.67;;;15.60;;
13202;SDS011;6666;51.626;7.530;2022-12-16T12:16:46;22.05;;;11.10;;
13202;SDS011;6666;51.626;7.530;2022-12-16T12:19:43;23.95;;;12.00;;
13202;SDS011;6666;51.626;7.530;2022-12-16T12:22:36;24.53;;;12.00;;
13202;SDS011;6666;51.626;7.530;2022-12-16T12:25:25;25.58;;;12.18;;
13202;SDS011;6666;51.626;7.530;2022-12-16T12:28:22;25.63;;;12.30;;
13202;SDS011;6666;51.626;7.530;2022-12-16T12:31:20;26.10;;;10.90;;
13202;SDS011;6666;51.626;7.530;2022-12-16T12:34:15;23.43;;;11.90;;
13202;SDS011;6666;51.626;7.530;2022-12-16T12:37:09;24.73;;;11.90;;
13202;SDS011;6666;51.626;7.530;2022-12-16T12:40:06;25.23;;;11.13;;
13202;SDS011;6666;51.626;7.530;2022-12-16T12:43:08;23.77;;;11.77;;
13202;SDS011;6666;51.626;7.530;2022-12-16T12:46:07;27.02;;;11.88;;
13202;SDS011;6666;51.626;7.530;2022-12-16T12:49:01;22.58;;;11.57;;
13202;SDS011;6666;51.626;7.530;2022-12-16T12:51:53;24.20;;;11.50;;
13202;SDS011;6666;51.626;7.530;2022-12-16T12:54:48;27.05;;;12.13;;
13202;SDS011;6666;51.626;7.530;2022-12-16T12:57:37;27.67;;;12.00;;
13202;SDS011;6666;51.626;7.530;2022-12-16T13:00:25;23.30;;;12.48;;
13202;SDS011;6666;51.626;7.530;2022-12-16T13:03:15;23.23;;;11.65;;
13202;SDS011;6666;51.626;7.530;2022-12-16T13:06:13;24.40;;;12.60;;
13202;SDS011;6666;51.626;7.530;2022-12-16T13:09:00;23.55;;;11.75;;
13202;SDS011;6666;51.626;7.530;2022-12-16T13:15:18;27.23;;;13.50;;
13202;SDS011;6666;51.626;7.530;2022-12-16T13:18:21;30.40;;;14.77;;
13202;SDS011;6666;51.626;7.530;2022-12-16T13:24:34;27.63;;;14.40;;
13202;SDS011;6666;51.626;7.530;2022-12-16T13:27:26;32.35;;;15.95;;
13202;SDS011;6666;51.626;7.530;2022-12-16T13:30:18;33.42;;;16.15;;
13202;SDS011;6666;51.626;7.530;2022-12-16T13:33:03;32.92;;;15.20;;
13202;SDS011;6666;51.626;7.530;2022-12-16T13:35:52;39.00;;;17.30;;
13202;SDS011;6666;51.626;7.530;2022-12-16T13:38:43;35.80;;;17.08;;
13202;SDS011;6666;51.626;7.530;2022-12-16T13:41:56;37.47;;;16.63;;
13202;SDS011;6666;51.626;7.530;2022-12-16T13:44:54;40.20;;;18.33;;
13202;SDS011;6666;51.626;7.530;2022-12-16T13:47:58;43.25;;;18.42;;
13202;SDS011;6666;51.626;7.530;2022-12-16T13:50:46;40.83;;;18.13;;
13202;SDS011;6666;51.626;7.530;2022-12-16T13:53:38;34.65;;;17.25;;
13202;SDS011;6666;51.626;7.530;2022-12-16T13:56:29;40.30;;;17.20;;
13202;SDS011;6666;51.626;7.530;2022-12-16T13:59:21;38.65;;;17.98;;
13202;SDS011;6666;51.626;7.530;2022-12-16T14:02:14;32.33;;;17.17;;
13202;SDS011;6666;51.626;7.530;2022-12-16T14:05:13;39.28;;;18.83;;
13202;SDS011;6666;51.626;7.530;2022-12-16T14:08:03;36.70;;;17.10;;
13202;SDS011;6666;51.626;7.530;2022-12-16T14:10:56;36.90;;;17.70;;
13202;SDS011;6666;51.626;7.530;2022-12-16T14:13:45;38.03;;;17.10;;
13202;SDS011;6666;51.626;7.530;2022-12-16T14:16:42;37.43;;;17.20;;
13202;SDS011;6666;51.626;7.530;2022-12-16T14:19:42;37.50;;;18.40;;
13202;SDS011;6666;51.626;7.530;2022-12-16T14:22:46;34.22;;;16.30;;
13202;SDS011;6666;51.626;7.530;2022-12-16T14:25:58;32.75;;;16.38;;
13202;SDS011;6666;51.626;7.530;2022-12-16T14:28:45;38.90;;;17.77;;
13202;SDS011;6666;51.626;7.530;2022-12-16T14:31:34;37.63;;;15.68;;
13202;SDS011;6666;51.626;7.530;2022-12-16T14:34:23;42.78;;;20.33;;
13202;SDS011;6666;51.626;7.530;2022-12-16T14:37:13;70.93;;;29.77;;
13202;SDS011;6666;51.626;7.530;2022-12-16T14:39:59;74.38;;;29.63;;
13202;SDS011;6666;51.626;7.530;2022-12-16T14:42:45;60.17;;;26.00;;
13202;SDS011;6666;51.626;7.530;2022-12-16T14:45:38;49.17;;;22.02;;
13202;SDS011;6666;51.626;7.530;2022-12-16T14:48:33;54.05;;;24.45;;
13202;SDS011;6666;51.626;7.530;2022-12-16T14:51:24;49.13;;;22.05;;
13202;SDS011;6666;51.626;7.530;2022-12-16T14:54:16;40.75;;;19.38;;
13202;SDS011;6666;51.626;7.530;2022-12-16T14:57:04;44.05;;;18.98;;
13202;SDS011;6666;51.626;7.530;2022-12-16T15:03:03;37.95;;;18.70;;
13202;SDS011;6666;51.626;7.530;2022-12-16T15:05:55;40.47;;;18.70;;
13202;SDS011;6666;51.626;7.530;2022-12-16T15:08:46;36.87;;;18.23;;
13202;SDS011;6666;51.626;7.530;2022-12-16T15:11:34;37.60;;;17.98;;
13202;SDS011;6666;51.626;7.530;2022-12-16T15:14:36;38.35;;;17.73;;
13202;SDS011;6666;51.626;7.530;2022-12-16T15:17:27;38.22;;;17.20;;
13202;SDS011;6666;51.626;7.530;2022-12-16T15:20:19;38.47;;;16.88;;
13202;SDS011;6666;51.626;7.530;2022-12-16T15:23:11;32.87;;;16.57;;
13202;SDS011;6666;51.626;7.530;2022-12-16T15:26:04;37.10;;;16.80;;
13202;SDS011;6666;51.626;7.530;2022-12-16T15:28:51;34.15;;;16.88;;
13202;SDS011;6666;51.626;7.530;2022-12-16T15:31:38;33.60;;;17.13;;
13202;SDS011;6666;51.626;7.530;2022-12-16T15:34:29;39.58;;;17.58;;
13202;SDS011;6666;51.626;7.530;2022-12-16T15:37:18;41.08;;;18.48;;
13202;SDS011;6666;51.626;7.530;2022-12-16T15:40:17;38.47;;;18.08;;
13202;SDS011;6666;51.626;7.530;2022-12-16T15:43:20;38.58;;;18.58;;
13202;SDS011;6666;51.626;7.530;2022-12-16T15:46:15;35.75;;;18.00;;
13202;SDS011;6666;51.626;7.530;2022-12-16T15:49:02;42.63;;;18.40;;
13202;SDS011;6666;51.626;7.530;2022-12-16T15:51:57;45.08;;;19.50;;
13202;SDS011;6666;51.626;7.530;2022-12-16T15:54:50;52.15;;;19.27;;
13202;SDS011;6666;51.626;7.530;2022-12-16T15:57:36;41.22;;;18.77;;
13202;SDS011;6666;51.626;7.530;2022-12-16T16:00:25;38.03;;;19.42;;
13202;SDS011;6666;51.626;7.530;2022-12-16T16:03:16;42.95;;;20.10;;
13202;SDS011;6666;51.626;7.530;2022-12-16T16:06:11;49.40;;;21.65;;
13202;SDS011;6666;51.626;7.530;2022-12-16T16:09:00;49.38;;;22.20;;
13202;SDS011;6666;51.626;7.530;2022-12-16T16:11:46;50.30;;;21.35;;
13202;SDS011;6666;51.626;7.530;2022-12-16T16:14:32;47.97;;;20.83;;
13202;SDS011;6666;51.626;7.530;2022-12-16T16:17:20;51.72;;;23.00;;
13202;SDS011;6666;51.626;7.530;2022-12-16T16:20:08;51.60;;;22.30;;
13202;SDS011;6666;51.626;7.530;2022-12-16T16:22:58;53.08;;;24.90;;
13202;SDS011;6666;51.626;7.530;2022-12-16T16:25:44;78.25;;;32.53;;
13202;SDS011;6666;51.626;7.530;2022-12-16T16:28:32;62.13;;;28.00;;
13202;SDS011;6666;51.626;7.530;2022-12-16T16:31:18;59.22;;;26.00;;
13202;SDS011;6666;51.626;7.530;2022-12-16T16:34:05;60.25;;;24.88;;
13202;SDS011;6666;51.626;7.530;2022-12-16T16:36:53;61.50;;;24.67;;
13202;SDS011;6666;51.626;7.530;2022-12-16T16:39:41;54.63;;;24.30;;
13202;SDS011;6666;51.626;7.530;2022-12-16T16:42:27;61.38;;;26.92;;